createdAt,value
2017-05-24T00:00:35.908Z,53.40
2017-05-24T00:03:04.228Z,53.70
2017-05-24T00:05:32.539Z,52.50
2017-05-24T00:08:00.858Z,53.80
2017-05-24T00:10:29.160Z,52.80
2017-05-24T00:12:57.499Z,52.20
2017-05-24T00:15:25.803Z,51.90
2017-05-24T00:17:54.100Z,52.00
2017-05-24T00:20:22.418Z,52.10
2017-05-24T00:22:50.719Z,52.10
2017-05-24T00:25:19.041Z,51.90
2017-05-24T00:27:47.340Z,51.60
2017-05-24T00:30:15.668Z,51.70
2017-05-24T00:32:43.963Z,51.60
2017-05-24T00:35:12.263Z,51.20
2017-05-24T00:37:40.579Z,51.80
2017-05-24T00:40:08.878Z,51.90
2017-05-24T00:42:37.201Z,51.60
2017-05-24T00:45:05.505Z,51.90
2017-05-24T00:47:33.835Z,52.10
2017-05-24T00:50:02.135Z,52.90
2017-05-24T00:52:30.440Z,54.10
2017-05-24T00:54:58.767Z,52.50
2017-05-24T00:57:27.072Z,52.50
2017-05-24T00:59:55.388Z,52.40
2017-05-24T01:02:23.688Z,52.30
2017-05-24T01:04:52.020Z,52.90
2017-05-24T01:07:20.317Z,51.50
2017-05-24T01:09:48.615Z,51.50
2017-05-24T01:12:16.936Z,51.70
2017-05-24T01:14:45.244Z,52.10
2017-05-24T01:17:13.574Z,51.90
2017-05-24T01:19:41.883Z,52.80
2017-05-24T01:22:10.209Z,51.90
2017-05-24T01:24:38.508Z,51.80
2017-05-24T01:27:06.804Z,52.00
2017-05-24T01:29:35.128Z,52.30
2017-05-24T01:32:03.427Z,52.10
2017-05-24T01:34:31.756Z,51.80
2017-05-24T01:37:00.055Z,52.00
2017-05-24T01:39:28.384Z,52.10
2017-05-24T01:41:56.691Z,52.30
2017-05-24T01:44:24.992Z,52.60
2017-05-24T01:46:53.315Z,53.00
2017-05-24T01:49:21.617Z,53.40
2017-05-24T01:51:49.933Z,53.50
2017-05-24T01:54:18.241Z,53.90
2017-05-24T01:56:46.572Z,54.70
2017-05-24T01:59:14.880Z,54.50
2017-05-24T02:01:43.182Z,55.30
2017-05-24T02:04:11.500Z,55.70
2017-05-24T02:06:39.801Z,56.30
2017-05-24T02:09:08.122Z,57.00
2017-05-24T02:11:36.415Z,57.00
2017-05-24T02:14:04.748Z,57.40
2017-05-24T02:16:33.048Z,57.90
2017-05-24T02:19:01.348Z,57.20
2017-05-24T02:21:29.667Z,56.20
2017-05-24T02:23:57.963Z,55.50
2017-05-24T02:26:26.285Z,55.60
2017-05-24T02:28:54.596Z,55.80
2017-05-24T02:31:22.931Z,54.30
2017-05-24T02:33:51.231Z,55.30
2017-05-24T02:36:19.555Z,55.60
2017-05-24T02:38:47.872Z,56.60
2017-05-24T02:41:16.181Z,56.00
2017-05-24T02:43:44.503Z,57.40
2017-05-24T02:46:12.803Z,57.70
2017-05-24T02:48:41.127Z,57.40
2017-05-24T02:51:09.430Z,58.10
2017-05-24T02:53:37.741Z,58.70
2017-05-24T02:56:06.078Z,57.90
2017-05-24T02:58:34.375Z,56.90
2017-05-24T03:01:02.702Z,57.20
2017-05-24T03:03:31.007Z,56.20
2017-05-24T03:05:59.339Z,55.80
2017-05-24T03:08:27.648Z,56.60
2017-05-24T03:10:55.948Z,57.30
2017-05-24T03:13:24.264Z,57.70
2017-05-24T03:15:52.571Z,56.60
2017-05-24T03:18:20.894Z,56.30
2017-05-24T03:20:49.209Z,55.70
2017-05-24T03:23:17.547Z,55.30
2017-05-24T03:25:45.865Z,55.00
2017-05-24T03:28:14.169Z,55.20
2017-05-24T03:30:42.489Z,55.30
2017-05-24T03:33:10.794Z,55.50
2017-05-24T03:35:39.111Z,55.90
2017-05-24T03:38:07.416Z,55.80
2017-05-24T03:40:35.736Z,56.00
2017-05-24T03:43:04.061Z,56.20
2017-05-24T03:45:32.351Z,56.50
2017-05-24T03:48:00.663Z,56.30
2017-05-24T03:50:28.964Z,55.90
2017-05-24T03:52:57.260Z,56.00
2017-05-24T03:55:25.592Z,55.80
2017-05-24T03:57:53.900Z,55.80
2017-05-24T04:00:22.247Z,55.50
2017-05-24T04:02:50.543Z,55.60
2017-05-24T04:05:18.920Z,55.10
2017-05-24T04:07:47.252Z,55.00
2017-05-24T04:10:15.559Z,54.90
2017-05-24T04:12:43.892Z,55.20
2017-05-24T04:15:12.212Z,55.70
2017-05-24T04:17:40.537Z,55.00
2017-05-24T04:20:14.675Z,54.80
2017-05-24T04:22:44.096Z,54.90
2017-05-24T04:25:12.451Z,54.40
2017-05-24T04:27:40.772Z,54.40
2017-05-24T04:30:09.108Z,54.70
2017-05-24T04:32:37.442Z,54.90
2017-05-24T04:35:05.772Z,54.10
2017-05-24T04:37:34.105Z,53.80
2017-05-24T04:40:02.429Z,54.10
2017-05-24T04:42:30.762Z,53.50
2017-05-24T04:44:59.121Z,53.50
2017-05-24T04:47:27.444Z,53.30
2017-05-24T04:49:55.797Z,53.00
2017-05-24T04:52:24.113Z,53.00
2017-05-24T04:54:52.464Z,53.30
2017-05-24T04:57:20.787Z,53.30
2017-05-24T04:59:49.120Z,53.30
2017-05-24T05:02:17.441Z,52.90
2017-05-24T05:04:45.757Z,52.00
2017-05-24T05:07:14.079Z,52.40
2017-05-24T05:09:42.392Z,52.20
2017-05-24T05:12:10.748Z,50.50
2017-05-24T05:14:39.073Z,50.40
2017-05-24T05:17:07.433Z,50.30
2017-05-24T05:19:35.758Z,49.80
2017-05-24T05:22:04.068Z,47.70
2017-05-24T05:24:32.398Z,46.50
2017-05-24T05:27:00.720Z,43.60
2017-05-24T05:29:29.049Z,38.90
2017-05-24T05:31:57.364Z,36.40
2017-05-24T05:34:25.712Z,36.00
2017-05-24T05:36:54.037Z,35.30
2017-05-24T05:39:22.361Z,35.90
2017-05-24T05:41:50.703Z,36.00
2017-05-24T05:44:19.014Z,38.10
2017-05-24T05:46:47.352Z,40.30
2017-05-24T05:49:15.662Z,42.40
2017-05-24T05:51:44.020Z,42.40
2017-05-24T05:54:12.336Z,40.00
2017-05-24T05:56:40.643Z,38.60
2017-05-24T05:59:08.983Z,37.40
2017-05-24T06:01:37.296Z,38.20
2017-05-24T06:04:05.619Z,38.30
2017-05-24T06:06:33.952Z,40.10
2017-05-24T06:09:02.313Z,41.20
2017-05-24T06:11:30.631Z,43.00
2017-05-24T06:13:58.955Z,44.30
2017-05-24T06:16:27.286Z,44.10
2017-05-24T06:18:55.597Z,43.70
2017-05-24T06:21:23.927Z,42.40
2017-05-24T06:23:52.243Z,42.00
2017-05-24T06:26:20.595Z,40.20
2017-05-24T06:28:48.935Z,39.00
2017-05-24T06:31:17.258Z,37.50
2017-05-24T06:33:45.619Z,37.00
2017-05-24T06:36:13.959Z,36.30
2017-05-24T06:38:42.293Z,36.10
2017-05-24T06:41:10.617Z,32.70
2017-05-24T06:43:38.944Z,32.00
2017-05-24T06:46:07.263Z,30.10
2017-05-24T06:48:35.580Z,29.90
2017-05-24T06:51:03.909Z,29.90
2017-05-24T06:53:32.234Z,29.90
2017-05-24T06:56:00.560Z,29.10
2017-05-24T06:58:28.878Z,28.50
2017-05-24T07:00:57.213Z,29.20
2017-05-24T07:03:25.541Z,29.50
2017-05-24T07:05:53.905Z,28.80
2017-05-24T07:08:22.212Z,28.70
2017-05-24T07:10:50.539Z,29.70
2017-05-24T07:13:18.881Z,30.30
2017-05-24T07:15:47.197Z,29.50
2017-05-24T07:18:15.539Z,28.80
2017-05-24T07:20:43.851Z,30.60
2017-05-24T07:23:12.200Z,31.80
2017-05-24T07:25:40.517Z,33.80
2017-05-24T07:28:08.828Z,34.00
2017-05-24T07:30:37.167Z,35.30
2017-05-24T07:33:05.502Z,35.60
2017-05-24T07:35:33.836Z,35.80
2017-05-24T07:38:02.150Z,36.20
2017-05-24T07:40:30.474Z,35.90
2017-05-24T07:42:58.784Z,36.50
2017-05-24T07:45:27.162Z,36.30
2017-05-24T07:47:55.476Z,34.10
2017-05-24T07:50:23.798Z,35.50
2017-05-24T07:52:52.136Z,35.50
2017-05-24T07:55:20.477Z,34.50
2017-05-24T07:57:48.827Z,34.80
2017-05-24T08:00:17.144Z,33.90
2017-05-24T08:02:45.496Z,33.20
2017-05-24T08:05:13.813Z,33.50
2017-05-24T08:07:42.120Z,34.30
2017-05-24T08:10:10.476Z,35.10
2017-05-24T08:12:38.819Z,35.70
2017-05-24T08:15:07.148Z,36.00
2017-05-24T08:17:35.465Z,37.00
2017-05-24T08:20:03.804Z,37.70
2017-05-24T08:22:32.164Z,37.30
2017-05-24T08:25:00.477Z,37.50
2017-05-24T08:27:28.812Z,37.80
2017-05-24T08:29:57.120Z,36.60
2017-05-24T08:32:25.447Z,34.30
2017-05-24T08:34:53.776Z,34.60
2017-05-24T08:37:22.144Z,35.30
2017-05-24T08:39:50.467Z,35.70
2017-05-24T08:42:18.776Z,35.70
2017-05-24T08:44:47.116Z,35.90
2017-05-24T08:47:15.423Z,35.70
2017-05-24T08:49:43.747Z,35.20
2017-05-24T08:52:12.069Z,35.00
2017-05-24T08:54:40.420Z,35.20
2017-05-24T08:57:08.736Z,37.80
2017-05-24T08:59:37.050Z,38.10
2017-05-24T09:02:05.389Z,37.80
2017-05-24T09:04:33.728Z,37.90
2017-05-24T09:07:02.147Z,37.80
2017-05-24T09:09:30.464Z,37.90
2017-05-24T09:11:58.820Z,38.50
2017-05-24T09:14:27.124Z,37.70
2017-05-24T09:16:55.431Z,38.80
2017-05-24T09:19:23.770Z,36.30
2017-05-24T09:21:52.077Z,35.50
2017-05-24T09:24:20.411Z,36.60
2017-05-24T09:26:48.735Z,36.40
2017-05-24T09:29:17.117Z,38.60
2017-05-24T09:31:45.430Z,40.20
2017-05-24T09:34:14.159Z,40.30
2017-05-24T09:36:42.501Z,39.30
2017-05-24T09:39:10.818Z,40.10
2017-05-24T09:41:39.190Z,38.90
2017-05-24T09:44:07.497Z,38.20
2017-05-24T09:46:35.815Z,38.10
2017-05-24T09:49:04.157Z,38.20
2017-05-24T09:51:32.510Z,38.00
2017-05-24T09:54:00.862Z,36.10
2017-05-24T09:56:29.168Z,36.00
2017-05-24T09:58:57.476Z,35.00
2017-05-24T10:01:25.824Z,32.80
2017-05-24T10:03:54.143Z,35.00
2017-05-24T10:06:22.475Z,35.00
2017-05-24T10:08:50.784Z,35.20
2017-05-24T10:11:19.156Z,35.40
2017-05-24T10:13:47.507Z,35.50
2017-05-24T10:16:15.824Z,38.00
2017-05-24T10:18:44.181Z,39.00
2017-05-24T10:21:12.496Z,40.20
2017-05-24T10:23:40.853Z,38.60
2017-05-24T10:26:09.180Z,38.50
2017-05-24T10:28:37.520Z,40.40
2017-05-24T10:31:05.825Z,39.80
2017-05-24T10:33:34.124Z,38.30
2017-05-24T10:36:02.480Z,39.10
2017-05-24T10:38:30.798Z,39.80
2017-05-24T10:41:04.767Z,38.60
2017-05-24T10:43:33.084Z,38.00
2017-05-24T10:46:01.458Z,38.50
2017-05-24T10:48:29.777Z,38.60
2017-05-24T10:50:58.082Z,40.00
2017-05-24T10:53:26.419Z,40.00
2017-05-24T10:55:54.733Z,40.80
2017-05-24T10:58:23.064Z,41.10
2017-05-24T11:00:51.390Z,41.30
2017-05-24T11:03:19.759Z,41.90
2017-05-24T11:05:48.123Z,40.90
2017-05-24T11:08:16.460Z,41.30
2017-05-24T11:10:44.784Z,42.40
2017-05-24T11:13:13.088Z,40.60
2017-05-24T11:15:41.423Z,40.00
2017-05-24T11:18:09.731Z,40.00
2017-05-24T11:20:38.091Z,40.80
2017-05-24T11:23:06.441Z,39.80
2017-05-24T11:25:34.753Z,39.20
2017-05-24T11:28:03.127Z,39.70
2017-05-24T11:30:31.438Z,40.30
2017-05-24T11:32:59.770Z,40.70
2017-05-24T11:35:28.088Z,39.60
2017-05-24T11:37:56.448Z,39.80
2017-05-24T11:40:24.762Z,39.80
2017-05-24T11:42:53.097Z,40.50
2017-05-24T11:45:21.431Z,42.00
2017-05-24T11:47:49.751Z,40.40
2017-05-24T11:50:18.085Z,40.70
2017-05-24T11:52:46.408Z,41.50
2017-05-24T11:55:14.753Z,41.00
2017-05-24T11:57:43.065Z,41.80
2017-05-24T12:00:11.401Z,42.80
2017-05-24T12:02:39.741Z,41.50
2017-05-24T12:05:08.052Z,41.90
2017-05-24T12:07:36.394Z,42.20
2017-05-24T12:10:04.694Z,42.80
2017-05-24T12:12:33.055Z,43.20
2017-05-24T12:15:01.360Z,42.80
2017-05-24T12:17:29.692Z,43.50
2017-05-24T12:19:58.028Z,43.50
2017-05-24T12:22:26.353Z,42.60
2017-05-24T12:24:54.689Z,43.40
2017-05-24T12:27:23.007Z,42.00
2017-05-24T12:29:51.366Z,43.50
2017-05-24T12:32:19.689Z,41.60
2017-05-24T12:34:48.000Z,42.10
2017-05-24T12:37:16.341Z,42.00
2017-05-24T12:39:44.649Z,42.80
2017-05-24T12:42:12.987Z,43.90
2017-05-24T12:44:41.296Z,43.60
2017-05-24T12:47:09.656Z,44.30
2017-05-24T12:49:37.973Z,42.70
2017-05-24T12:52:06.306Z,42.90
2017-05-24T12:54:34.661Z,43.40
2017-05-24T12:57:02.968Z,42.60
2017-05-24T12:59:31.321Z,43.50
2017-05-24T13:01:59.709Z,43.40
2017-05-24T13:04:28.133Z,42.60
2017-05-24T13:06:56.444Z,42.00
2017-05-24T13:09:24.758Z,42.10
2017-05-24T13:11:53.092Z,42.40
2017-05-24T13:14:21.401Z,42.00
2017-05-24T13:16:49.747Z,41.10
2017-05-24T13:19:18.080Z,42.80
2017-05-24T13:21:46.417Z,41.70
2017-05-24T13:24:14.749Z,42.90
2017-05-24T13:26:43.071Z,43.40
2017-05-24T13:29:11.401Z,44.00
2017-05-24T13:31:39.740Z,44.00
2017-05-24T13:34:08.072Z,44.40
2017-05-24T13:36:36.391Z,44.20
2017-05-24T13:39:04.753Z,44.70
2017-05-24T13:41:33.115Z,44.40
2017-05-24T13:44:01.419Z,44.90
2017-05-24T13:46:29.773Z,43.50
2017-05-24T13:48:58.081Z,43.50
2017-05-24T13:51:26.431Z,44.50
2017-05-24T13:53:54.751Z,44.10
2017-05-24T13:56:23.094Z,43.40
2017-05-24T13:58:51.406Z,43.80
2017-05-24T14:01:19.720Z,44.00
2017-05-24T14:03:48.080Z,43.80
2017-05-24T14:06:16.400Z,43.90
2017-05-24T14:08:44.823Z,44.50
2017-05-24T14:11:13.232Z,45.70
2017-05-24T14:13:41.624Z,44.50
2017-05-24T14:16:09.957Z,44.20
2017-05-24T14:18:38.277Z,43.60
2017-05-24T14:21:06.613Z,44.10
2017-05-24T14:23:34.957Z,42.20
2017-05-24T14:26:03.296Z,42.80
2017-05-24T14:28:31.651Z,42.10
2017-05-24T14:31:00.012Z,41.50
2017-05-24T14:33:28.321Z,42.30
2017-05-24T14:35:56.676Z,42.30
2017-05-24T14:38:24.995Z,42.10
2017-05-24T14:40:53.313Z,42.90
2017-05-24T14:43:21.674Z,42.60
2017-05-24T14:45:49.982Z,43.70
2017-05-24T14:48:18.309Z,45.30
2017-05-24T14:50:46.624Z,45.10
2017-05-24T14:53:14.974Z,44.90
2017-05-24T14:55:43.290Z,45.40
2017-05-24T14:58:11.609Z,45.10
2017-05-24T15:00:39.935Z,45.10
2017-05-24T15:03:08.239Z,46.10
2017-05-24T15:05:36.572Z,46.00
2017-05-24T15:08:04.891Z,46.10
2017-05-24T15:10:33.243Z,45.40
2017-05-24T15:13:01.561Z,44.90
2017-05-24T15:15:29.878Z,44.60
2017-05-24T15:17:58.205Z,44.80
2017-05-24T15:20:26.517Z,46.00
2017-05-24T15:22:54.887Z,46.60
2017-05-24T15:25:23.198Z,45.70
2017-05-24T15:27:51.573Z,45.80
2017-05-24T15:30:19.884Z,46.80
2017-05-24T15:32:48.198Z,46.70
2017-05-24T15:35:16.535Z,46.20
2017-05-24T15:37:44.870Z,46.20
2017-05-24T15:40:13.195Z,47.00
2017-05-24T15:42:41.500Z,47.80
2017-05-24T15:45:09.838Z,48.80
2017-05-24T15:47:38.153Z,48.70
2017-05-24T15:50:06.460Z,48.40
2017-05-24T15:52:34.822Z,49.00
2017-05-24T15:55:03.135Z,49.00
2017-05-24T15:57:31.475Z,53.20
2017-05-24T15:59:59.789Z,55.60
2017-05-24T16:02:28.157Z,55.30
2017-05-24T16:04:56.479Z,55.10
2017-05-24T16:07:24.788Z,55.30
2017-05-24T16:09:53.122Z,54.20
2017-05-24T16:12:21.473Z,56.30
2017-05-24T16:14:49.843Z,53.20
2017-05-24T16:17:18.156Z,54.10
2017-05-24T16:19:46.464Z,54.90
2017-05-24T16:22:14.810Z,53.10
2017-05-24T16:24:43.132Z,53.00
2017-05-24T16:27:11.500Z,53.80
2017-05-24T16:29:39.812Z,52.70
2017-05-24T16:32:08.164Z,52.60
2017-05-24T16:34:36.495Z,51.80
2017-05-24T16:37:04.838Z,50.70
2017-05-24T16:39:33.191Z,51.30
2017-05-24T16:42:01.506Z,51.40
2017-05-24T16:44:29.829Z,51.20
2017-05-24T16:46:58.162Z,51.70
2017-05-24T16:49:26.480Z,52.40
2017-05-24T16:51:54.829Z,52.20
2017-05-24T16:54:23.151Z,52.40
2017-05-24T16:56:51.473Z,52.90
2017-05-24T16:59:19.804Z,53.10
2017-05-24T17:01:48.109Z,54.10
2017-05-24T17:04:16.457Z,54.30
2017-05-24T17:06:44.776Z,54.70
2017-05-24T17:09:13.102Z,55.50
2017-05-24T17:11:41.439Z,55.80
2017-05-24T17:14:09.768Z,56.80
2017-05-24T17:16:38.099Z,57.10
2017-05-24T17:19:06.416Z,57.60
2017-05-24T17:21:34.765Z,57.50
2017-05-24T17:24:03.069Z,57.50
2017-05-24T17:26:31.384Z,57.80
2017-05-24T17:28:59.716Z,57.50
2017-05-24T17:31:28.043Z,57.20
2017-05-24T17:33:56.374Z,56.10
2017-05-24T17:36:24.704Z,56.10
2017-05-24T17:38:53.060Z,55.50
2017-05-24T17:41:21.392Z,54.80
2017-05-24T17:43:49.726Z,54.90
2017-05-24T17:46:18.060Z,54.60
2017-05-24T17:48:46.368Z,55.00
2017-05-24T17:51:14.700Z,55.30
2017-05-24T17:53:43.032Z,56.40
2017-05-24T17:56:11.391Z,56.90
2017-05-24T17:58:39.707Z,58.80
2017-05-24T18:01:08.019Z,59.10
2017-05-24T18:03:36.357Z,59.10
2017-05-24T18:06:04.671Z,59.40
2017-05-24T18:08:33.008Z,59.30
2017-05-24T18:11:01.346Z,58.90
2017-05-24T18:13:29.677Z,58.10
2017-05-24T18:15:58.000Z,58.00
2017-05-24T18:18:26.358Z,58.00
2017-05-24T18:20:54.668Z,57.80
2017-05-24T18:23:22.976Z,56.80
2017-05-24T18:25:51.309Z,57.20
2017-05-24T18:28:19.620Z,57.30
2017-05-24T18:30:47.957Z,56.80
2017-05-24T18:33:16.277Z,57.10
2017-05-24T18:35:44.632Z,56.90
2017-05-24T18:38:12.958Z,57.00
2017-05-24T18:40:41.280Z,57.10
2017-05-24T18:43:09.631Z,57.30
2017-05-24T18:45:37.957Z,57.50
2017-05-24T18:48:06.308Z,58.10
2017-05-24T18:50:34.612Z,58.10
2017-05-24T18:53:02.993Z,58.50
2017-05-24T18:55:31.295Z,59.60
2017-05-24T18:57:59.607Z,60.40
2017-05-24T19:00:27.965Z,61.60
2017-05-24T19:02:56.335Z,62.20
2017-05-24T19:05:24.671Z,63.00
2017-05-24T19:07:52.985Z,63.70
2017-05-24T19:10:21.328Z,65.10
2017-05-24T19:12:49.668Z,65.70
2017-05-24T19:15:17.999Z,65.70
2017-05-24T19:17:46.347Z,67.10
2017-05-24T19:20:14.671Z,68.50
2017-05-24T19:22:43.010Z,69.40
2017-05-24T19:25:11.323Z,69.20
2017-05-24T19:27:39.625Z,68.90
2017-05-24T19:30:07.942Z,68.40
2017-05-24T19:32:36.239Z,68.50
2017-05-24T19:35:04.573Z,68.30
2017-05-24T19:37:32.881Z,68.50
2017-05-24T19:40:01.186Z,69.30
2017-05-24T19:42:29.507Z,70.30
2017-05-24T19:44:57.808Z,71.50
2017-05-24T19:47:26.152Z,72.30
2017-05-24T19:49:54.453Z,72.40
2017-05-24T19:52:22.822Z,72.60
2017-05-24T19:54:51.131Z,72.20
2017-05-24T19:57:19.439Z,72.20
2017-05-24T19:59:47.768Z,72.00
2017-05-24T20:02:16.069Z,72.30
2017-05-24T20:04:44.372Z,71.10
2017-05-24T20:07:12.698Z,70.10
2017-05-24T20:09:41.002Z,70.10
2017-05-24T20:12:09.339Z,70.30
2017-05-24T20:14:37.639Z,69.90
2017-05-24T20:17:05.939Z,71.20
2017-05-24T20:19:34.266Z,72.90
2017-05-24T20:22:02.567Z,71.10
2017-05-24T20:24:30.900Z,71.00
2017-05-24T20:26:59.196Z,71.50
2017-05-24T20:29:27.496Z,72.90
2017-05-24T20:31:55.819Z,74.10
2017-05-24T20:34:24.125Z,74.40
2017-05-24T20:36:52.446Z,74.90
2017-05-24T20:39:20.744Z,74.80
2017-05-24T20:41:49.071Z,74.40
2017-05-24T20:44:17.369Z,74.60
2017-05-24T20:46:45.671Z,73.30
2017-05-24T20:49:13.987Z,74.20
2017-05-24T20:51:42.300Z,74.00
2017-05-24T20:54:10.623Z,74.20
2017-05-24T20:56:38.924Z,74.40
2017-05-24T20:59:07.260Z,74.90
2017-05-24T21:01:35.568Z,75.00
2017-05-24T21:04:03.867Z,72.80
2017-05-24T21:06:32.189Z,71.60
2017-05-24T21:09:00.489Z,70.80
2017-05-24T21:11:29.379Z,71.30
2017-05-24T21:13:57.680Z,72.20
2017-05-24T21:16:26.019Z,73.10
2017-05-24T21:18:54.334Z,73.90
2017-05-24T21:21:22.699Z,74.40
2017-05-24T21:23:51.005Z,74.00
2017-05-24T21:26:19.314Z,75.00
2017-05-24T21:28:47.635Z,75.40
2017-05-24T21:31:15.937Z,76.10
2017-05-24T21:33:44.280Z,76.10
2017-05-24T21:36:12.584Z,75.70
2017-05-24T21:38:40.891Z,74.10
2017-05-24T21:41:09.207Z,74.60
2017-05-24T21:43:37.517Z,75.10
2017-05-24T21:46:05.836Z,75.90
2017-05-24T21:48:34.131Z,72.20
2017-05-24T21:51:02.462Z,71.40
2017-05-24T21:53:30.768Z,73.70
2017-05-24T21:55:59.068Z,75.10
2017-05-24T21:58:27.391Z,76.10
2017-05-24T22:00:55.697Z,76.70
2017-05-24T22:03:24.022Z,75.00
2017-05-24T22:05:52.327Z,75.30
2017-05-24T22:08:20.654Z,76.00
2017-05-24T22:10:48.956Z,76.50
2017-05-24T22:13:17.265Z,77.10
2017-05-24T22:15:45.588Z,75.90
2017-05-24T22:18:13.896Z,76.30
2017-05-24T22:20:42.219Z,76.70
2017-05-24T22:23:10.518Z,76.50
2017-05-24T22:25:38.869Z,76.50
2017-05-24T22:28:07.172Z,76.20
2017-05-24T22:30:35.472Z,76.20
2017-05-24T22:33:03.796Z,76.30
2017-05-24T22:35:32.102Z,73.90
2017-05-24T22:38:00.432Z,72.20
2017-05-24T22:40:28.728Z,71.70
2017-05-24T22:42:57.063Z,72.50
2017-05-24T22:45:25.371Z,73.00
2017-05-24T22:47:53.684Z,73.80
2017-05-24T22:50:22.025Z,74.40
2017-05-24T22:52:50.333Z,75.90
2017-05-24T22:55:18.667Z,76.60
2017-05-24T22:57:46.967Z,77.00
2017-05-24T23:00:15.281Z,77.30
2017-05-24T23:02:43.601Z,77.10
2017-05-24T23:05:11.911Z,76.80
2017-05-24T23:07:40.255Z,76.70
2017-05-24T23:10:08.558Z,76.40
2017-05-24T23:12:36.861Z,76.00
2017-05-24T23:15:05.189Z,76.40
2017-05-24T23:17:33.496Z,75.80
2017-05-24T23:20:01.815Z,76.10
2017-05-24T23:22:30.123Z,76.90
2017-05-24T23:24:58.455Z,77.40
2017-05-24T23:27:26.759Z,76.20
2017-05-24T23:29:55.065Z,76.20
2017-05-24T23:32:23.387Z,76.20
2017-05-24T23:34:51.688Z,76.80
2017-05-24T23:37:20.012Z,76.90
2017-05-24T23:39:48.324Z,76.80
2017-05-24T23:42:16.661Z,76.80
2017-05-24T23:44:44.976Z,77.30
2017-05-24T23:47:13.280Z,78.20
2017-05-24T23:49:41.611Z,78.60
2017-05-24T23:52:09.915Z,78.30
2017-05-24T23:54:38.239Z,77.70
2017-05-24T23:57:06.544Z,77.10
2017-05-24T23:59:34.889Z,76.90
